createdAt,value
2024-04-10T00:03:07.529Z,60.04
2024-04-10T00:08:10.420Z,59.98
2024-04-10T00:13:13.421Z,60.13
2024-04-10T00:18:16.322Z,60.35
2024-04-10T00:23:19.457Z,60.41
2024-04-10T00:28:22.802Z,60.54
2024-04-10T00:33:25.848Z,60.87
2024-04-10T00:38:30.181Z,60.95
2024-04-10T00:43:34.209Z,60.92
2024-04-10T00:48:37.638Z,61.30
2024-04-10T00:53:42.452Z,61.10
2024-04-10T00:58:45.704Z,61.42
2024-04-10T01:03:49.005Z,61.21
2024-04-10T01:08:52.396Z,61.52
2024-04-10T01:13:55.373Z,61.77
2024-04-10T01:18:58.254Z,62.13
2024-04-10T01:24:01.478Z,61.91
2024-04-10T01:29:04.341Z,62.03
2024-04-10T01:34:07.798Z,62.13
2024-04-10T01:39:10.751Z,62.52
2024-04-10T01:44:13.653Z,62.77
2024-04-10T01:49:16.540Z,62.76
2024-04-10T01:54:19.866Z,63.29
2024-04-10T01:59:22.810Z,63.68
2024-04-10T02:04:25.969Z,63.67
2024-04-10T02:09:29.410Z,64.17
2024-04-10T02:14:36.216Z,64.85
2024-04-10T02:19:39.123Z,65.04
2024-04-10T02:24:41.909Z,65.35
2024-04-10T02:29:44.927Z,65.26
2024-04-10T02:34:48.146Z,65.74
2024-04-10T02:39:51.104Z,65.81
2024-04-10T02:44:54.005Z,66.10
2024-04-10T02:49:56.820Z,66.43
2024-04-10T02:54:59.644Z,66.63
2024-04-10T03:00:03.818Z,66.83
2024-04-10T03:05:08.054Z,67.08
2024-04-10T03:10:11.200Z,67.14
2024-04-10T03:15:17.199Z,66.66
2024-04-10T03:20:20.142Z,66.46
2024-04-10T03:25:22.979Z,66.19
2024-04-10T03:30:26.590Z,66.07
2024-04-10T03:35:31.035Z,65.90
2024-04-10T03:40:34.021Z,65.98
2024-04-10T03:45:37.280Z,65.94
2024-04-10T03:50:40.260Z,66.12
2024-04-10T03:55:43.408Z,66.17
2024-04-10T04:00:48.342Z,66.12
2024-04-10T04:05:51.647Z,66.36
2024-04-10T04:10:55.699Z,66.00
2024-04-10T04:15:58.807Z,65.87
2024-04-10T04:21:01.696Z,65.82
2024-04-10T04:26:05.167Z,65.83
2024-04-10T04:31:08.025Z,65.67
2024-04-10T04:36:11.351Z,65.77
2024-04-10T04:41:14.427Z,65.07
2024-04-10T04:46:18.887Z,64.99
2024-04-10T04:51:21.913Z,64.54
2024-04-10T04:56:24.779Z,64.53
2024-04-10T05:01:28.123Z,64.05
2024-04-10T05:06:30.978Z,63.96
2024-04-10T05:11:34.148Z,64.06
2024-04-10T05:16:37.159Z,63.88
2024-04-10T05:21:40.078Z,63.36
2024-04-10T05:26:43.150Z,63.38
2024-04-10T05:31:45.960Z,63.36
2024-04-10T05:36:50.339Z,63.30
2024-04-10T05:41:54.666Z,63.08
2024-04-10T05:46:57.613Z,62.84
2024-04-10T05:52:00.439Z,62.07
2024-04-10T05:57:03.625Z,61.72
2024-04-10T06:02:07.720Z,61.49
2024-04-10T06:07:10.848Z,61.13
2024-04-10T06:12:13.808Z,60.84
2024-04-10T06:17:16.895Z,60.09
2024-04-10T06:22:23.005Z,60.02
2024-04-10T06:27:26.881Z,59.70
2024-04-10T06:32:30.098Z,59.06
2024-04-10T06:37:34.530Z,58.68
2024-04-10T06:42:37.418Z,58.40
2024-04-10T06:47:41.798Z,57.87
2024-04-10T06:52:45.491Z,57.15
2024-04-10T06:57:48.383Z,57.62
2024-04-10T07:02:51.703Z,57.87
2024-04-10T07:07:54.888Z,58.56
2024-04-10T07:12:57.735Z,58.91
2024-04-10T07:18:00.968Z,58.88
2024-04-10T07:23:06.912Z,58.88
2024-04-10T07:28:09.911Z,58.92
2024-04-10T07:33:12.869Z,59.36
2024-04-10T07:38:17.277Z,59.30
2024-04-10T07:43:20.487Z,59.57
2024-04-10T07:48:24.272Z,59.68
2024-04-10T07:53:27.646Z,59.83
2024-04-10T07:58:30.968Z,60.02
2024-04-10T08:03:35.361Z,60.15
2024-04-10T08:08:41.214Z,59.94
2024-04-10T08:13:44.340Z,60.28
2024-04-10T08:18:47.776Z,60.37
2024-04-10T08:23:51.047Z,60.16
2024-04-10T08:28:53.993Z,60.04
2024-04-10T08:33:57.150Z,59.98
2024-04-10T08:39:00.270Z,60.38
2024-04-10T08:44:04.575Z,60.46
2024-04-10T08:49:10.140Z,60.53
2024-04-10T08:54:15.421Z,60.71
2024-04-10T08:59:18.370Z,60.41
2024-04-10T09:04:23.870Z,60.35
2024-04-10T09:09:26.043Z,60.52
2024-04-10T09:14:29.144Z,60.49
2024-04-10T09:19:32.134Z,60.33
2024-04-10T09:24:35.116Z,59.78
2024-04-10T09:29:38.076Z,60.15
2024-04-10T09:34:42.220Z,59.78
2024-04-10T09:39:45.223Z,59.78
2024-04-10T09:44:54.324Z,59.66
2024-04-10T09:50:00.877Z,59.33
2024-04-10T09:55:05.460Z,59.17
2024-04-10T10:00:12.074Z,59.21
2024-04-10T10:05:22.603Z,59.26
2024-04-10T10:10:26.022Z,59.12
2024-04-10T10:15:29.269Z,58.88
2024-04-10T10:20:34.136Z,59.21
2024-04-10T10:25:37.457Z,59.15
2024-04-10T10:30:42.679Z,59.34
2024-04-10T10:35:47.885Z,59.16
2024-04-10T10:40:50.737Z,59.12
2024-04-10T10:45:54.690Z,59.31
2024-04-10T10:50:58.551Z,59.49
2024-04-10T10:56:01.718Z,59.38
2024-04-10T11:01:08.642Z,59.47
2024-04-10T11:06:12.835Z,59.46
2024-04-10T11:11:17.265Z,59.51
2024-04-10T11:16:32.145Z,59.47
2024-04-10T11:21:36.677Z,59.15
2024-04-10T11:26:42.860Z,59.01
2024-04-10T11:31:45.768Z,58.85
2024-04-10T11:36:49.289Z,59.18
2024-04-10T11:41:52.364Z,59.47
2024-04-10T11:46:55.671Z,60.01
2024-04-10T11:51:58.569Z,60.04
2024-04-10T11:57:05.762Z,59.97
2024-04-10T12:02:08.891Z,59.98
2024-04-10T12:07:11.794Z,59.98
2024-04-10T12:12:14.803Z,59.53
2024-04-10T12:17:18.824Z,59.51
2024-04-10T12:22:21.836Z,59.18
2024-04-10T12:27:25.667Z,59.29
2024-04-10T12:32:28.699Z,59.29
2024-04-10T12:38:01.173Z,59.15
2024-04-10T12:43:04.379Z,59.16
2024-04-10T12:48:09.416Z,59.63
2024-04-10T12:53:12.644Z,59.58
2024-04-10T12:58:15.649Z,60.07
2024-04-10T13:03:20.484Z,60.82
2024-04-10T13:08:23.557Z,60.56
2024-04-10T13:13:31.561Z,60.35
2024-04-10T13:18:43.286Z,59.81
2024-04-10T13:23:48.328Z,59.56
2024-04-10T13:28:52.793Z,58.55
2024-04-10T13:33:59.112Z,58.45
2024-04-10T13:39:02.384Z,58.21
2024-04-10T13:44:05.818Z,58.16
2024-04-10T13:49:08.793Z,58.27
2024-04-10T13:54:12.559Z,58.13
2024-04-10T13:59:15.603Z,58.66
2024-04-10T14:04:18.663Z,58.51
2024-04-10T14:09:21.517Z,58.59
2024-04-10T14:14:24.971Z,58.79
2024-04-10T14:19:27.753Z,58.95
2024-04-10T14:24:32.250Z,59.11
2024-04-10T14:29:37.023Z,58.97
2024-04-10T14:34:40.060Z,58.84
2024-04-10T14:39:43.127Z,58.19
2024-04-10T14:44:46.093Z,58.18
2024-04-10T14:49:52.955Z,58.29
2024-04-10T14:54:55.853Z,58.34
2024-04-10T14:59:58.757Z,58.23
2024-04-10T15:05:02.658Z,58.16
2024-04-10T15:10:10.637Z,58.35
2024-04-10T15:15:15.239Z,58.49
2024-04-10T15:20:18.618Z,58.69
2024-04-10T15:25:22.131Z,59.02
2024-04-10T15:30:25.216Z,59.25
2024-04-10T15:35:29.242Z,59.43
2024-04-10T15:40:32.245Z,59.27
2024-04-10T15:45:39.874Z,59.53
2024-04-10T15:50:42.782Z,59.84
2024-04-10T15:55:45.829Z,59.70
2024-04-10T16:00:48.803Z,59.97
2024-04-10T16:05:51.805Z,59.96
2024-04-10T16:10:55.374Z,59.99
2024-04-10T16:16:05.763Z,60.13
2024-04-10T16:21:10.075Z,60.16
2024-04-10T16:26:15.418Z,60.38
2024-04-10T16:31:19.731Z,60.23
2024-04-10T16:36:22.756Z,60.22
2024-04-10T16:41:25.776Z,60.11
2024-04-10T16:46:28.647Z,60.22
2024-04-10T16:51:31.532Z,60.27
2024-04-10T16:56:34.440Z,60.13
2024-04-10T17:01:37.378Z,59.84
2024-04-10T17:06:42.493Z,60.02
2024-04-10T17:11:45.525Z,59.79
2024-04-10T17:16:51.401Z,60.22
2024-04-10T17:21:57.383Z,60.24
2024-04-10T17:27:01.001Z,60.41
2024-04-10T17:32:04.758Z,60.58
2024-04-10T17:37:07.613Z,60.69
2024-04-10T17:42:10.624Z,60.77
2024-04-10T17:47:13.523Z,60.65
2024-04-10T17:52:16.355Z,60.76
2024-04-10T17:57:19.255Z,60.82
2024-04-10T18:02:22.360Z,60.81
2024-04-10T18:07:25.252Z,61.00
2024-04-10T18:12:28.265Z,61.08
2024-04-10T18:17:31.515Z,61.17
2024-04-10T18:22:35.098Z,61.12
2024-04-10T18:27:38.093Z,61.08
2024-04-10T18:32:41.408Z,61.09
2024-04-10T18:37:44.604Z,61.09
2024-04-10T18:42:51.358Z,61.00
2024-04-10T18:47:54.658Z,61.19
2024-04-10T18:52:57.644Z,61.44
2024-04-10T18:58:00.494Z,61.17
2024-04-10T19:03:03.585Z,61.54
2024-04-10T19:08:08.885Z,61.41
2024-04-10T19:13:56.102Z,61.57
2024-04-10T19:18:59.551Z,61.65
2024-04-10T19:24:03.037Z,61.61
2024-04-10T19:29:06.353Z,61.76
2024-04-10T19:34:10.133Z,62.20
2024-04-10T19:39:15.270Z,62.38
2024-04-10T19:44:19.866Z,62.11
2024-04-10T19:49:23.096Z,62.13
2024-04-10T19:54:26.159Z,62.52
2024-04-10T19:59:30.342Z,62.79
2024-04-10T20:04:33.778Z,63.11
2024-04-10T20:09:36.868Z,63.43
2024-04-10T20:14:40.034Z,63.46
2024-04-10T20:19:46.637Z,63.59
2024-04-10T20:24:51.675Z,64.55
2024-04-10T20:29:55.015Z,64.41
2024-04-10T20:34:58.496Z,64.21
2024-04-10T20:40:01.761Z,64.36
2024-04-10T20:45:05.499Z,64.28
2024-04-10T20:50:09.423Z,64.65
2024-04-10T20:55:12.404Z,64.62
2024-04-10T21:00:16.472Z,64.87
2024-04-10T21:05:19.548Z,65.07
2024-04-10T21:10:40.975Z,65.12
2024-04-10T21:16:03.588Z,65.34
2024-04-10T21:21:24.878Z,65.28
2024-04-10T21:26:48.687Z,65.41
2024-04-10T21:32:10.057Z,65.65
2024-04-10T21:37:32.368Z,66.00
2024-04-10T21:42:53.534Z,66.24
2024-04-10T21:48:14.909Z,66.59
2024-04-10T21:53:37.205Z,66.69
2024-04-10T21:58:58.468Z,67.16
2024-04-10T22:04:19.875Z,67.03
2024-04-10T22:09:25.703Z,66.79
2024-04-10T22:14:31.460Z,67.10
2024-04-10T22:19:53.478Z,67.26
2024-04-10T22:24:57.029Z,67.39
2024-04-10T22:30:00.223Z,67.56
2024-04-10T22:35:03.807Z,67.65
2024-04-10T22:40:09.051Z,67.72
2024-04-10T22:45:12.048Z,67.82
2024-04-10T22:50:16.549Z,67.26
2024-04-10T22:55:20.759Z,67.58
2024-04-10T23:00:23.617Z,67.79
2024-04-10T23:05:44.407Z,67.86
2024-04-10T23:10:50.116Z,68.07
2024-04-10T23:15:53.162Z,68.26
2024-04-10T23:20:57.091Z,68.17
2024-04-10T23:26:00.194Z,68.55
2024-04-10T23:31:03.395Z,68.50
2024-04-10T23:36:07.263Z,68.98
2024-04-10T23:41:10.538Z,68.74
2024-04-10T23:46:13.527Z,69.05
2024-04-10T23:51:16.396Z,68.84
2024-04-10T23:56:20.371Z,69.29
